Time;durP1;ratioP1;P1;durP2;ratioP2;P2;SDS_P1;SDS_P2;PMS_P1;PMS_P2;Temp;Humidity;BMP_temperature;BMP_pressure;BME280_temperature;BME280_humidity;BME280_pressure;Samples;Min_cycle;Max_cycle;Signal;HPM_P1;HPM_P2
2023/10/19 00:00:19;;;;;;;;;2.50;1.00;;;;;;;;5100287;27;45468;-84
2023/10/19 00:02:44;;;;;;;;;0.75;0.25;;;;;;;;5100056;27;46036;-82
2023/10/19 00:05:10;;;;;;;;;0.75;0.00;;;;;;;;5101043;27;45418;-83
2023/10/19 00:07:35;;;;;;;;;1.00;1.00;;;;;;;;5099588;27;45383;-83
2023/10/19 00:10:03;;;;;;;;;0.75;0.75;;;;;;;;5101587;27;45421;-84
2023/10/19 00:12:28;;;;;;;;;1.50;1.50;;;;;;;;5099919;27;46067;-82
2023/10/19 00:14:54;;;;;;;;;1.50;1.00;;;;;;;;5099598;27;47474;-81
2023/10/19 00:17:20;;;;;;;;;0.00;0.00;;;;;;;;5101230;27;45205;-84
2023/10/19 00:19:57;;;;;;;;;1.75;1.25;;;;;;;;5100020;27;45401;-81
2023/10/19 00:22:24;;;;;;;;;1.00;1.00;;;;;;;;5100974;27;45417;-83
2023/10/19 00:24:49;;;;;;;;;1.75;1.50;;;;;;;;5100846;27;45506;-82
2023/10/19 00:27:19;;;;;;;;;1.00;1.00;;;;;;;;5099615;27;45377;-83
2023/10/19 00:29:55;;;;;;;;;2.25;0.25;;;;;;;;5088682;27;45301;-82
2023/10/19 00:32:24;;;;;;;;;1.00;1.00;;;;;;;;5080505;28;45477;-84
2023/10/19 00:34:53;;;;;;;;;1.00;1.00;;;;;;;;5080366;28;45369;-81
2023/10/19 00:37:21;;;;;;;;;0.50;0.50;;;;;;;;5078580;28;45352;-81
2023/10/19 00:39:53;;;;;;;;;0.00;0.00;;;;;;;;5079460;28;45346;-82
2023/10/19 00:42:23;;;;;;;;;2.50;1.50;;;;;;;;5079869;28;45197;-81
2023/10/19 00:44:50;;;;;;;;;2.00;2.00;;;;;;;;5079274;28;45340;-82
2023/10/19 00:47:18;;;;;;;;;2.50;1.25;;;;;;;;5080058;28;45431;-82
2023/10/19 00:49:44;;;;;;;;;2.00;1.75;;;;;;;;5080101;28;45230;-81
2023/10/19 00:52:16;;;;;;;;;2.00;0.75;;;;;;;;5079507;28;45226;-83
2023/10/19 00:57:19;;;;;;;;;0.25;0.25;;;;;;;;5079812;28;45415;-81
2023/10/19 00:59:54;;;;;;;;;2.00;2.00;;;;;;;;5080200;28;45195;-83
2023/10/19 01:02:28;;;;;;;;;2.00;2.00;;;;;;;;5079971;28;45354;-82
2023/10/19 01:05:04;;;;;;;;;1.25;1.25;;;;;;;;5078379;28;47477;-83
2023/10/19 01:07:30;;;;;;;;;0.50;0.50;;;;;;;;5078041;28;45280;-83
2023/10/19 01:10:05;;;;;;;;;1.50;1.50;;;;;;;;5080104;28;45220;-82
2023/10/19 01:15:23;;;;;;;;;1.00;1.00;;;;;;;;5079849;28;45924;-81
2023/10/19 01:17:52;;;;;;;;;1.00;1.00;;;;;;;;5079842;28;45282;-82
2023/10/19 01:20:23;;;;;;;;;3.00;3.00;;;;;;;;5079896;28;45282;-82
2023/10/19 01:22:50;;;;;;;;;1.00;1.00;;;;;;;;5078189;28;46578;-82
2023/10/19 01:25:16;;;;;;;;;2.25;1.75;;;;;;;;5082831;28;45250;-82
2023/10/19 01:27:42;;;;;;;;;1.50;1.50;;;;;;;;5083150;28;45354;-82
2023/10/19 01:30:09;;;;;;;;;1.75;1.25;;;;;;;;5098938;27;45519;-82
2023/10/19 01:32:34;;;;;;;;;3.00;1.25;;;;;;;;5103766;27;45365;-82
2023/10/19 01:34:59;;;;;;;;;0.00;0.00;;;;;;;;5103540;27;45968;-82
2023/10/19 01:37:25;;;;;;;;;2.25;2.25;;;;;;;;5103560;27;45374;-82
2023/10/19 01:39:50;;;;;;;;;2.00;2.00;;;;;;;;5103777;27;45555;-82
2023/10/19 01:42:17;;;;;;;;;2.00;0.00;;;;;;;;5103518;27;45509;-80
2023/10/19 01:44:42;;;;;;;;;0.25;0.25;;;;;;;;5102124;27;46789;-81
2023/10/19 01:47:07;;;;;;;;;1.00;1.00;;;;;;;;5103268;27;45399;-81
2023/10/19 01:49:32;;;;;;;;;2.00;1.25;;;;;;;;5102451;27;45206;-82
2023/10/19 01:51:58;;;;;;;;;1.00;1.00;;;;;;;;5103357;27;45258;-82
2023/10/19 01:54:24;;;;;;;;;0.50;0.00;;;;;;;;5103163;27;45415;-81
2023/10/19 01:56:56;;;;;;;;;1.25;1.25;;;;;;;;5103474;27;45220;-82
2023/10/19 01:59:27;;;;;;;;;2.00;1.50;;;;;;;;5103494;27;45255;-81
2023/10/19 02:01:52;;;;;;;;;1.50;0.75;;;;;;;;5103206;27;45408;-81
2023/10/19 02:04:17;;;;;;;;;0.50;0.50;;;;;;;;5103098;27;45320;-81
2023/10/19 02:06:46;;;;;;;;;1.50;1.00;;;;;;;;5103076;27;45385;-81
2023/10/19 02:09:21;;;;;;;;;1.00;1.00;;;;;;;;5103147;27;45357;-81
2023/10/19 02:11:47;;;;;;;;;3.00;1.00;;;;;;;;5103062;27;45392;-81
2023/10/19 02:14:14;;;;;;;;;2.00;1.00;;;;;;;;5103080;27;45291;-81
2023/10/19 02:16:39;;;;;;;;;1.00;1.00;;;;;;;;5102950;27;45369;-81
2023/10/19 02:19:05;;;;;;;;;2.75;0.00;;;;;;;;5101709;27;45323;-81
2023/10/19 02:21:30;;;;;;;;;0.00;0.00;;;;;;;;5084637;27;46586;-81
2023/10/19 02:23:57;;;;;;;;;1.00;1.00;;;;;;;;5080533;28;47459;-81
2023/10/19 02:26:25;;;;;;;;;3.50;2.50;;;;;;;;5080006;28;45478;-82
2023/10/19 02:28:51;;;;;;;;;2.00;0.00;;;;;;;;5085655;27;45379;-82
2023/10/19 02:31:23;;;;;;;;;1.67;1.00;;;;;;;;5102868;27;45330;-83
2023/10/19 02:34:00;;;;;;;;;3.00;3.00;;;;;;;;5101234;27;47605;-81
2023/10/19 02:36:29;;;;;;;;;5.00;3.00;;;;;;;;5101379;27;45350;-81
2023/10/19 02:38:58;;;;;;;;;1.00;0.00;;;;;;;;5101246;27;45256;-81
2023/10/19 02:41:24;;;;;;;;;1.00;1.00;;;;;;;;5102616;27;45406;-81
2023/10/19 02:44:01;;;;;;;;;1.67;0.67;;;;;;;;5102524;27;46538;-81
2023/10/19 02:46:27;;;;;;;;;4.67;1.00;;;;;;;;5102457;27;45334;-82
2023/10/19 02:48:52;;;;;;;;;1.00;0.00;;;;;;;;5101391;27;45255;-81
2023/10/19 02:51:19;;;;;;;;;5.00;3.00;;;;;;;;5101048;27;47089;-82
2023/10/19 02:53:44;;;;;;;;;2.00;2.00;;;;;;;;5101049;27;48248;-80
2023/10/19 02:56:10;;;;;;;;;2.00;0.67;;;;;;;;5102492;27;45230;-82
2023/10/19 02:58:36;;;;;;;;;0.33;0.33;;;;;;;;5102588;27;45451;-81
2023/10/19 03:01:01;;;;;;;;;1.00;1.00;;;;;;;;5100807;27;47292;-81
2023/10/19 03:03:26;;;;;;;;;2.00;1.00;;;;;;;;5102271;27;45441;-81
2023/10/19 03:05:52;;;;;;;;;2.67;2.67;;;;;;;;5102109;27;45400;-82
2023/10/19 03:08:19;;;;;;;;;1.67;1.67;;;;;;;;5102290;27;45500;-81
2023/10/19 03:10:44;;;;;;;;;2.00;1.67;;;;;;;;5100940;27;47168;-81
2023/10/19 03:13:09;;;;;;;;;1.00;1.00;;;;;;;;5102060;27;45507;-81
2023/10/19 03:15:35;;;;;;;;;1.33;1.00;;;;;;;;5102208;27;45356;-82
2023/10/19 03:18:01;;;;;;;;;3.00;1.00;;;;;;;;5102342;27;45298;-81
2023/10/19 03:20:27;;;;;;;;;0.67;0.33;;;;;;;;5101913;27;45487;-81
2023/10/19 03:22:52;;;;;;;;;1.00;1.00;;;;;;;;5100337;27;47542;-81
2023/10/19 03:28:16;;;;;;;;;0.00;0.00;;;;;;;;5101989;27;45276;-81
2023/10/19 03:30:41;;;;;;;;;0.33;0.00;;;;;;;;5081299;27;45702;-80
2023/10/19 03:33:11;;;;;;;;;2.00;2.00;;;;;;;;5079975;28;48366;-81
2023/10/19 03:35:43;;;;;;;;;2.33;1.33;;;;;;;;5081386;28;45193;-81
2023/10/19 03:38:14;;;;;;;;;2.00;2.00;;;;;;;;5080050;28;45432;-82
2023/10/19 03:40:40;;;;;;;;;1.00;1.00;;;;;;;;5081287;28;45272;-81
2023/10/19 03:43:16;;;;;;;;;2.50;1.00;;;;;;;;5081095;28;45287;-81
2023/10/19 03:45:47;;;;;;;;;2.33;1.00;;;;;;;;5080835;28;45434;-80
2023/10/19 03:48:13;;;;;;;;;2.33;2.00;;;;;;;;5080938;28;45249;-81
2023/10/19 03:50:38;;;;;;;;;1.00;0.25;;;;;;;;5079479;28;46462;-81
2023/10/19 03:53:04;;;;;;;;;1.00;1.00;;;;;;;;5079320;28;47188;-81
2023/10/19 03:55:30;;;;;;;;;2.00;2.00;;;;;;;;5081034;28;45203;-80
2023/10/19 03:57:55;;;;;;;;;1.75;1.00;;;;;;;;5079750;28;45277;-81
2023/10/19 04:00:24;;;;;;;;;1.67;1.67;;;;;;;;5081012;28;45218;-80
2023/10/19 04:02:54;;;;;;;;;3.00;2.50;;;;;;;;5079420;28;47205;-81
2023/10/19 04:05:23;;;;;;;;;2.33;2.33;;;;;;;;5080564;28;45243;-81
2023/10/19 04:07:54;;;;;;;;;2.00;2.00;;;;;;;;5079315;28;45383;-82
2023/10/19 04:13:00;;;;;;;;;1.67;1.00;;;;;;;;5080685;28;45322;-81
2023/10/19 04:15:26;;;;;;;;;4.00;3.33;;;;;;;;5080804;28;45311;-81
2023/10/19 04:17:52;;;;;;;;;2.33;2.00;;;;;;;;5079406;28;45395;-81
2023/10/19 04:22:47;;;;;;;;;2.67;2.67;;;;;;;;5080372;28;45207;-81
2023/10/19 04:25:13;;;;;;;;;3.25;1.75;;;;;;;;5080537;28;45338;-80
2023/10/19 04:27:39;;;;;;;;;4.33;3.00;;;;;;;;5080672;28;45410;-81
2023/10/19 04:30:04;;;;;;;;;2.00;2.00;;;;;;;;5095387;27;45531;-81
2023/10/19 04:32:31;;;;;;;;;2.00;2.00;;;;;;;;5100753;27;45339;-81
2023/10/19 04:34:58;;;;;;;;;2.00;2.00;;;;;;;;5100907;27;45257;-81
2023/10/19 04:37:24;;;;;;;;;2.00;2.00;;;;;;;;5099194;27;45296;-81
2023/10/19 04:39:49;;;;;;;;;4.67;1.00;;;;;;;;5100854;27;45149;-81
2023/10/19 04:42:15;;;;;;;;;2.00;2.00;;;;;;;;5099403;27;48271;-80
2023/10/19 04:44:40;;;;;;;;;0.00;0.00;;;;;;;;5099386;27;45352;-81
2023/10/19 04:47:05;;;;;;;;;1.50;1.00;;;;;;;;5089121;27;45205;-81
2023/10/19 04:49:30;;;;;;;;;2.00;2.00;;;;;;;;5068916;28;45501;-81
2023/10/19 04:51:56;;;;;;;;;3.00;1.50;;;;;;;;5067977;28;48347;-81
2023/10/19 04:54:21;;;;;;;;;2.00;2.00;;;;;;;;5079483;28;45393;-81
2023/10/19 04:56:46;;;;;;;;;1.25;1.25;;;;;;;;5078946;28;45468;-81
2023/10/19 04:59:14;;;;;;;;;3.25;2.00;;;;;;;;5078738;28;45294;-80
2023/10/19 05:01:40;;;;;;;;;0.75;0.00;;;;;;;;5079972;28;46221;-81
2023/10/19 05:04:06;;;;;;;;;2.00;1.00;;;;;;;;5079869;28;45389;-80
2023/10/19 05:06:31;;;;;;;;;1.25;1.00;;;;;;;;5079028;28;45235;-81
2023/10/19 05:08:57;;;;;;;;;2.00;1.75;;;;;;;;5079131;28;45229;-82
2023/10/19 05:11:22;;;;;;;;;2.25;2.25;;;;;;;;5079719;28;45273;-82
2023/10/19 05:13:47;;;;;;;;;0.25;0.00;;;;;;;;5080061;28;45374;-83
2023/10/19 05:16:12;;;;;;;;;1.00;1.00;;;;;;;;5079984;28;45573;-84
2023/10/19 05:18:38;;;;;;;;;3.50;2.00;;;;;;;;5069195;28;46124;-83
2023/10/19 05:21:03;;;;;;;;;2.00;1.00;;;;;;;;5059401;28;46219;-83
2023/10/19 05:23:30;;;;;;;;;3.25;1.50;;;;;;;;5058427;28;45213;-88
2023/10/19 05:26:02;;;;;;;;;2.50;2.00;;;;;;;;5059111;28;45250;-88
2023/10/19 05:28:27;;;;;;;;;2.50;1.00;;;;;;;;5062483;27;45386;-86
2023/10/19 05:30:54;;;;;;;;;1.00;0.00;;;;;;;;5098896;27;46921;-86
2023/10/19 05:33:20;;;;;;;;;1.67;1.67;;;;;;;;5100570;27;45366;-84
2023/10/19 05:35:46;;;;;;;;;0.75;0.75;;;;;;;;5079200;27;45531;-85
2023/10/19 05:38:14;;;;;;;;;2.33;2.00;;;;;;;;5057747;28;46359;-82
2023/10/19 05:40:42;;;;;;;;;3.00;1.00;;;;;;;;5059230;28;46132;-82
2023/10/19 05:43:08;;;;;;;;;1.50;1.50;;;;;;;;5059223;28;45393;-82
2023/10/19 05:45:36;;;;;;;;;4.00;4.00;;;;;;;;5060170;28;45377;-81
2023/10/19 05:48:03;;;;;;;;;2.67;1.67;;;;;;;;5059445;28;45334;-80
2023/10/19 05:50:28;;;;;;;;;4.50;1.50;;;;;;;;5059149;28;45530;-81
2023/10/19 05:52:54;;;;;;;;;1.00;1.00;;;;;;;;5058222;28;45582;-80
2023/10/19 05:55:21;;;;;;;;;1.50;1.50;;;;;;;;5059378;28;45401;-81
2023/10/19 05:57:46;;;;;;;;;2.50;2.00;;;;;;;;5059020;28;45411;-80
2023/10/19 06:00:15;;;;;;;;;1.00;1.00;;;;;;;;5064732;28;45263;-75
2023/10/19 06:02:48;;;;;;;;;0.00;0.00;;;;;;;;5061556;28;45174;-75
2023/10/19 06:05:17;;;;;;;;;3.50;3.00;;;;;;;;5066549;28;45260;-74
2023/10/19 06:07:43;;;;;;;;;2.50;1.25;;;;;;;;5063269;28;45462;-74
2023/10/19 06:10:15;;;;;;;;;1.25;1.00;;;;;;;;5082558;28;45647;-74
2023/10/19 06:12:41;;;;;;;;;2.33;1.33;;;;;;;;5089631;28;45250;-76
2023/10/19 06:15:06;;;;;;;;;4.00;1.50;;;;;;;;5091048;28;45837;-76
2023/10/19 06:17:32;;;;;;;;;1.67;1.67;;;;;;;;5085070;28;45927;-77
2023/10/19 06:19:57;;;;;;;;;0.75;0.75;;;;;;;;5086669;28;48267;-76
2023/10/19 06:22:22;;;;;;;;;1.25;1.25;;;;;;;;5086242;28;45362;-76
2023/10/19 06:24:47;;;;;;;;;0.75;0.75;;;;;;;;5078738;28;45447;-80
2023/10/19 06:27:12;;;;;;;;;1.50;1.50;;;;;;;;5078944;28;45477;-77
2023/10/19 06:29:38;;;;;;;;;3.00;1.00;;;;;;;;5081351;27;45816;-79
2023/10/19 06:32:03;;;;;;;;;0.75;0.75;;;;;;;;5082579;28;45442;-79
2023/10/19 06:34:29;;;;;;;;;1.50;1.50;;;;;;;;5083053;28;45403;-78
2023/10/19 06:36:54;;;;;;;;;4.00;2.50;;;;;;;;5077426;28;45464;-76
2023/10/19 06:39:20;;;;;;;;;1.00;1.00;;;;;;;;5061889;28;45372;-78
2023/10/19 06:41:46;;;;;;;;;0.00;0.00;;;;;;;;5067138;28;45342;-75
2023/10/19 06:44:14;;;;;;;;;0.50;0.00;;;;;;;;5069528;28;45333;-75
2023/10/19 06:46:40;;;;;;;;;1.00;1.00;;;;;;;;5066735;28;45497;-76
2023/10/19 06:49:05;;;;;;;;;2.50;1.75;;;;;;;;5065516;28;45670;-77
2023/10/19 06:51:32;;;;;;;;;1.00;1.00;;;;;;;;5063204;28;45304;-79
2023/10/19 06:53:57;;;;;;;;;2.00;2.00;;;;;;;;5061971;28;45398;-80
2023/10/19 06:56:22;;;;;;;;;1.50;1.50;;;;;;;;5081103;28;45354;-79
2023/10/19 06:58:48;;;;;;;;;1.00;1.00;;;;;;;;5081373;28;46176;-78
2023/10/19 07:01:16;;;;;;;;;1.00;1.00;;;;;;;;5081495;28;45352;-79
2023/10/19 07:03:44;;;;;;;;;1.00;1.00;;;;;;;;5082568;28;45206;-79
2023/10/19 07:06:13;;;;;;;;;2.00;1.00;;;;;;;;5080483;28;47081;-79
2023/10/19 07:08:38;;;;;;;;;1.25;1.25;;;;;;;;5080102;28;47182;-79
2023/10/19 07:11:03;;;;;;;;;2.00;1.50;;;;;;;;5082077;28;45346;-79
2023/10/19 07:13:32;;;;;;;;;2.75;1.00;;;;;;;;5081770;28;45649;-79
2023/10/19 07:15:58;;;;;;;;;2.00;2.00;;;;;;;;5080637;28;45993;-79
2023/10/19 07:18:23;;;;;;;;;1.00;1.00;;;;;;;;5082142;28;45236;-79
2023/10/19 07:20:49;;;;;;;;;1.50;1.50;;;;;;;;5082130;28;45284;-79
2023/10/19 07:23:26;;;;;;;;;2.25;2.00;;;;;;;;5081864;28;45339;-79
2023/10/19 07:25:56;;;;;;;;;3.00;1.25;;;;;;;;5099436;27;45568;-79
2023/10/19 07:28:21;;;;;;;;;1.00;1.00;;;;;;;;5078629;27;46012;-80
2023/10/19 07:30:47;;;;;;;;;1.00;1.00;;;;;;;;5072302;27;45371;-80
2023/10/19 07:33:22;;;;;;;;;0.00;0.00;;;;;;;;5071020;28;45407;-81
2023/10/19 07:35:51;;;;;;;;;0.00;0.00;;;;;;;;5070114;28;45430;-79
2023/10/19 07:38:16;;;;;;;;;2.25;0.75;;;;;;;;5079777;28;46631;-82
2023/10/19 07:40:43;;;;;;;;;1.25;0.00;;;;;;;;5068826;28;45399;-82
2023/10/19 07:43:08;;;;;;;;;0.50;0.00;;;;;;;;5066596;28;45316;-82
2023/10/19 07:45:34;;;;;;;;;1.00;1.00;;;;;;;;5070772;28;45438;-80
2023/10/19 07:48:12;;;;;;;;;1.25;0.25;;;;;;;;5080790;28;45460;-80
2023/10/19 07:50:38;;;;;;;;;2.00;1.00;;;;;;;;5070722;28;45209;-81
2023/10/19 07:53:04;;;;;;;;;0.50;0.00;;;;;;;;5065979;28;45256;-80
2023/10/19 07:55:31;;;;;;;;;1.00;0.50;;;;;;;;5069752;28;45247;-80
2023/10/19 07:57:59;;;;;;;;;2.25;2.00;;;;;;;;5075728;28;46202;-80
2023/10/19 08:00:25;;;;;;;;;1.00;0.00;;;;;;;;5076626;28;45282;-81
2023/10/19 08:02:51;;;;;;;;;0.00;0.00;;;;;;;;5069434;28;45419;-79
2023/10/19 08:05:20;;;;;;;;;2.75;1.50;;;;;;;;5069469;28;45443;-79
2023/10/19 08:07:49;;;;;;;;;0.00;0.00;;;;;;;;5069936;28;45491;-80
2023/10/19 08:10:16;;;;;;;;;0.25;0.25;;;;;;;;5061590;28;45882;-80
2023/10/19 08:12:42;;;;;;;;;0.00;0.00;;;;;;;;5062063;28;45330;-79
2023/10/19 08:15:07;;;;;;;;;0.50;0.50;;;;;;;;5070040;28;45510;-79
2023/10/19 08:17:33;;;;;;;;;0.00;0.00;;;;;;;;5059972;28;45138;-78
2023/10/19 08:20:01;;;;;;;;;0.75;0.75;;;;;;;;5059920;28;45362;-79
2023/10/19 08:22:27;;;;;;;;;1.00;0.00;;;;;;;;5060443;28;45496;-78
2023/10/19 08:24:52;;;;;;;;;0.25;0.00;;;;;;;;5063721;28;45544;-79
2023/10/19 08:27:17;;;;;;;;;0.00;0.00;;;;;;;;5080367;28;45379;-79
2023/10/19 08:29:42;;;;;;;;;1.25;1.00;;;;;;;;5092177;27;45273;-79
2023/10/19 08:32:08;;;;;;;;;0.00;0.00;;;;;;;;5101012;27;45579;-78
2023/10/19 08:34:36;;;;;;;;;0.00;0.00;;;;;;;;5099491;27;46405;-78
2023/10/19 08:37:02;;;;;;;;;0.00;0.00;;;;;;;;5100867;27;45413;-78
2023/10/19 08:39:35;;;;;;;;;0.75;0.75;;;;;;;;5100886;27;45157;-79
2023/10/19 08:42:01;;;;;;;;;0.00;0.00;;;;;;;;5100003;27;45472;-78
2023/10/19 08:44:26;;;;;;;;;0.00;0.00;;;;;;;;5100760;27;45393;-78
2023/10/19 08:46:51;;;;;;;;;2.00;1.00;;;;;;;;5100494;27;46043;-78
2023/10/19 08:49:19;;;;;;;;;0.50;0.50;;;;;;;;5101009;27;45159;-79
2023/10/19 08:51:45;;;;;;;;;1.75;1.00;;;;;;;;5100988;27;45364;-76
2023/10/19 08:54:13;;;;;;;;;0.00;0.00;;;;;;;;5099062;27;46227;-78
2023/10/19 08:56:41;;;;;;;;;1.00;1.00;;;;;;;;5099059;27;47054;-78
2023/10/19 08:59:06;;;;;;;;;0.00;0.00;;;;;;;;5099281;27;45334;-77
2023/10/19 09:01:31;;;;;;;;;0.00;0.00;;;;;;;;5100671;27;45182;-78
2023/10/19 09:03:57;;;;;;;;;0.75;0.75;;;;;;;;5099084;27;46604;-76
2023/10/19 09:06:22;;;;;;;;;0.75;0.75;;;;;;;;5100100;27;46196;-76
2023/10/19 09:08:48;;;;;;;;;0.25;0.25;;;;;;;;5100193;27;45233;-77
2023/10/19 09:11:13;;;;;;;;;0.50;0.25;;;;;;;;5100434;27;45271;-78
2023/10/19 09:13:58;;;;;;;;;1.00;0.00;;;;;;;;5100685;27;45221;-77
2023/10/19 09:16:23;;;;;;;;;0.50;0.00;;;;;;;;5100556;27;45493;-78
2023/10/19 09:18:50;;;;;;;;;2.50;1.00;;;;;;;;5100299;27;45296;-77
2023/10/19 09:21:24;;;;;;;;;2.00;2.00;;;;;;;;5098890;27;45295;-78
2023/10/19 09:23:49;;;;;;;;;1.00;0.25;;;;;;;;5099328;27;46427;-77
2023/10/19 09:26:15;;;;;;;;;1.00;1.00;;;;;;;;5101305;27;46285;-78
2023/10/19 09:28:40;;;;;;;;;1.00;1.00;;;;;;;;5097454;27;45358;-77
2023/10/19 09:31:09;;;;;;;;;1.00;0.00;;;;;;;;5079938;28;45311;-76
2023/10/19 09:33:34;;;;;;;;;0.00;0.00;;;;;;;;5079660;28;45466;-75
2023/10/19 09:36:00;;;;;;;;;0.25;0.00;;;;;;;;5078327;28;47033;-75
2023/10/19 09:38:26;;;;;;;;;1.00;1.00;;;;;;;;5079549;28;45397;-76
2023/10/19 09:40:54;;;;;;;;;0.00;0.00;;;;;;;;5079710;28;45365;-78
2023/10/19 09:43:24;;;;;;;;;0.00;0.00;;;;;;;;5078555;28;47130;-77
2023/10/19 09:45:53;;;;;;;;;1.50;0.75;;;;;;;;5080708;28;47411;-78
2023/10/19 09:48:19;;;;;;;;;0.75;0.75;;;;;;;;5083146;28;45258;-76
2023/10/19 09:50:51;;;;;;;;;1.00;1.00;;;;;;;;5083419;28;45298;-77
2023/10/19 09:53:17;;;;;;;;;0.00;0.00;;;;;;;;5081257;28;47113;-77
2023/10/19 09:55:44;;;;;;;;;1.00;1.00;;;;;;;;5082824;28;45335;-76
2023/10/19 09:58:12;;;;;;;;;3.00;2.00;;;;;;;;5078718;28;45334;-79
2023/10/19 10:00:38;;;;;;;;;1.75;1.75;;;;;;;;5062824;28;45497;-78
2023/10/19 10:03:05;;;;;;;;;1.00;1.00;;;;;;;;5061919;28;45318;-76
2023/10/19 10:05:42;;;;;;;;;1.00;1.00;;;;;;;;5064113;28;45380;-76
2023/10/19 10:08:16;;;;;;;;;1.00;0.75;;;;;;;;5082439;28;45283;-76
2023/10/19 10:10:41;;;;;;;;;1.75;0.00;;;;;;;;5081528;28;45293;-78
2023/10/19 10:13:31;;;;;;;;;0.75;0.75;;;;;;;;5082225;28;45318;-75
2023/10/19 10:15:57;;;;;;;;;0.00;0.00;;;;;;;;5080971;28;47958;-77
2023/10/19 10:18:34;;;;;;;;;1.75;1.75;;;;;;;;5081028;28;45398;-77
2023/10/19 10:21:16;;;;;;;;;3.00;1.00;;;;;;;;5082566;28;45267;-77
2023/10/19 10:23:47;;;;;;;;;1.25;1.00;;;;;;;;5082209;28;45516;-76
2023/10/19 10:26:14;;;;;;;;;1.00;0.00;;;;;;;;5082462;28;45312;-76
2023/10/19 10:28:40;;;;;;;;;3.00;2.00;;;;;;;;5085413;27;45365;-76
2023/10/19 10:31:09;;;;;;;;;0.25;0.25;;;;;;;;5101724;27;45447;-75
2023/10/19 10:33:37;;;;;;;;;2.00;1.00;;;;;;;;5102217;27;45539;-77
2023/10/19 10:36:05;;;;;;;;;1.00;1.00;;;;;;;;5102588;27;45269;-78
2023/10/19 10:38:33;;;;;;;;;0.00;0.00;;;;;;;;5101152;27;45803;-77
2023/10/19 10:40:58;;;;;;;;;1.00;1.00;;;;;;;;5101596;27;45434;-77
2023/10/19 10:43:23;;;;;;;;;1.00;0.75;;;;;;;;5101316;27;46164;-76
2023/10/19 10:45:48;;;;;;;;;0.00;0.00;;;;;;;;5102447;27;46297;-76
2023/10/19 10:48:19;;;;;;;;;1.50;1.50;;;;;;;;5102599;27;45557;-76
2023/10/19 10:50:46;;;;;;;;;0.00;0.00;;;;;;;;5096055;27;45344;-76
2023/10/19 10:53:12;;;;;;;;;0.00;0.00;;;;;;;;5080866;28;47189;-76
2023/10/19 10:55:39;;;;;;;;;1.25;0.00;;;;;;;;5079226;28;45273;-76
2023/10/19 10:58:04;;;;;;;;;0.00;0.00;;;;;;;;5079730;28;46617;-78
2023/10/19 11:00:32;;;;;;;;;0.00;0.00;;;;;;;;5080686;28;45793;-76
2023/10/19 11:03:07;;;;;;;;;1.00;1.00;;;;;;;;5085538;28;45260;-76
2023/10/19 11:05:34;;;;;;;;;0.00;0.00;;;;;;;;5090906;27;48308;-75
2023/10/19 11:08:06;;;;;;;;;1.00;1.00;;;;;;;;5080767;28;45346;-76
2023/10/19 11:10:32;;;;;;;;;0.00;0.00;;;;;;;;5081753;27;45221;-76
2023/10/19 11:13:04;;;;;;;;;0.50;0.50;;;;;;;;5072624;28;45483;-75
2023/10/19 11:15:29;;;;;;;;;0.50;0.50;;;;;;;;5080621;27;47019;-75
2023/10/19 11:17:54;;;;;;;;;0.00;0.00;;;;;;;;5067269;28;45249;-75
2023/10/19 11:20:23;;;;;;;;;1.00;1.00;;;;;;;;5084260;27;45723;-77
2023/10/19 11:22:52;;;;;;;;;0.00;0.00;;;;;;;;5066926;27;46242;-77
2023/10/19 11:25:19;;;;;;;;;1.00;1.00;;;;;;;;5075311;27;47341;-76
2023/10/19 11:27:44;;;;;;;;;0.00;0.00;;;;;;;;5070160;27;45744;-77
2023/10/19 11:30:11;;;;;;;;;0.75;0.75;;;;;;;;5073604;27;45377;-75
2023/10/19 11:32:40;;;;;;;;;1.50;1.50;;;;;;;;5066666;28;46801;-76
2023/10/19 11:35:09;;;;;;;;;0.50;0.50;;;;;;;;5075075;28;45925;-76
2023/10/19 11:37:50;;;;;;;;;1.25;1.25;;;;;;;;5072759;28;45333;-77
2023/10/19 11:40:16;;;;;;;;;1.00;1.00;;;;;;;;5070043;27;45340;-76
2023/10/19 11:42:42;;;;;;;;;0.75;0.75;;;;;;;;5069060;28;45263;-76
2023/10/19 11:45:07;;;;;;;;;1.00;1.00;;;;;;;;5074101;27;45306;-77
2023/10/19 11:47:33;;;;;;;;;0.00;0.00;;;;;;;;5077350;28;45870;-77
2023/10/19 11:49:58;;;;;;;;;0.75;0.75;;;;;;;;5070582;27;45377;-75
2023/10/19 11:52:23;;;;;;;;;0.00;0.00;;;;;;;;5071659;28;45649;-77
2023/10/19 11:54:48;;;;;;;;;0.75;0.75;;;;;;;;5071197;27;47228;-76
2023/10/19 11:57:14;;;;;;;;;0.00;0.00;;;;;;;;5073760;27;45464;-76
2023/10/19 11:59:40;;;;;;;;;0.50;0.00;;;;;;;;5070362;27;45611;-76
2023/10/19 12:02:06;;;;;;;;;1.75;1.00;;;;;;;;5068800;28;46201;-75
2023/10/19 12:04:32;;;;;;;;;0.25;0.25;;;;;;;;5070100;27;47282;-75
2023/10/19 12:06:57;;;;;;;;;1.25;0.50;;;;;;;;5068695;28;45442;-76
2023/10/19 12:09:24;;;;;;;;;0.00;0.00;;;;;;;;5073333;27;44762;-76
2023/10/19 12:11:53;;;;;;;;;0.00;0.00;;;;;;;;5070401;28;45527;-76
2023/10/19 12:14:18;;;;;;;;;0.00;0.00;;;;;;;;5073223;27;45692;-76
2023/10/19 12:16:45;;;;;;;;;1.00;1.00;;;;;;;;5069664;28;45440;-76
2023/10/19 12:19:10;;;;;;;;;0.00;0.00;;;;;;;;5068959;27;45343;-75
2023/10/19 12:21:37;;;;;;;;;0.00;0.00;;;;;;;;5068542;27;47052;-75
2023/10/19 12:24:04;;;;;;;;;0.25;0.25;;;;;;;;5066079;27;47111;-75
2023/10/19 12:26:30;;;;;;;;;0.50;0.50;;;;;;;;5071548;27;45393;-75
2023/10/19 12:28:55;;;;;;;;;5.75;5.00;;;;;;;;5071717;27;45412;-76
2023/10/19 12:31:22;;;;;;;;;19.00;15.33;;;;;;;;5071702;27;45379;-76
2023/10/19 12:33:47;;;;;;;;;2.75;2.00;;;;;;;;5071026;28;46348;-76
2023/10/19 12:36:46;;;;;;;;;2.75;0.00;;;;;;;;5075197;27;45352;-76
2023/10/19 12:39:07;;;;;;;;;3.00;1.50;;;;;;;;5068463;27;45456;-75
2023/10/19 12:41:32;;;;;;;;;0.50;0.50;;;;;;;;5079086;27;46120;-77
2023/10/19 12:43:58;;;;;;;;;0.00;0.00;;;;;;;;5073669;28;46203;-76
2023/10/19 12:46:29;;;;;;;;;0.50;0.00;;;;;;;;5072505;27;45707;-76
2023/10/19 12:48:55;;;;;;;;;0.00;0.00;;;;;;;;5068773;28;45385;-75
2023/10/19 12:51:24;;;;;;;;;1.75;1.00;;;;;;;;5070243;27;45327;-76
2023/10/19 12:53:51;;;;;;;;;1.00;0.00;;;;;;;;5070432;28;46376;-76
2023/10/19 12:56:16;;;;;;;;;0.80;0.00;;;;;;;;5069235;27;45411;-76
2023/10/19 12:58:42;;;;;;;;;4.00;1.00;;;;;;;;5068824;28;45590;-76
2023/10/19 13:01:16;;;;;;;;;0.00;0.00;;;;;;;;5070455;27;45907;-75
2023/10/19 13:03:45;;;;;;;;;0.25;0.25;;;;;;;;5072696;28;47246;-76
2023/10/19 13:06:11;;;;;;;;;0.00;0.00;;;;;;;;5071428;27;45297;-76
2023/10/19 13:08:38;;;;;;;;;1.00;1.00;;;;;;;;5067899;28;45483;-76
2023/10/19 13:11:03;;;;;;;;;2.00;1.25;;;;;;;;5066644;27;46971;-76
2023/10/19 13:13:28;;;;;;;;;0.00;0.00;;;;;;;;5078001;28;45403;-76
2023/10/19 13:15:53;;;;;;;;;0.00;0.00;;;;;;;;5095672;27;45342;-77
2023/10/19 13:18:27;;;;;;;;;2.00;1.25;;;;;;;;5099838;27;45455;-75
2023/10/19 13:20:54;;;;;;;;;0.25;0.25;;;;;;;;5081102;27;46413;-76
2023/10/19 13:23:22;;;;;;;;;0.00;0.00;;;;;;;;5057115;28;47281;-75
2023/10/19 13:25:57;;;;;;;;;3.00;1.00;;;;;;;;5068062;27;45417;-77
2023/10/19 13:28:23;;;;;;;;;1.00;1.00;;;;;;;;5068519;27;45860;-77
2023/10/19 13:30:55;;;;;;;;;2.00;0.75;;;;;;;;5078655;27;45710;-76
2023/10/19 13:33:21;;;;;;;;;1.00;0.50;;;;;;;;5065047;28;45990;-75
2023/10/19 13:35:47;;;;;;;;;1.50;1.50;;;;;;;;5056411;28;45732;-76
2023/10/19 13:38:16;;;;;;;;;2.00;1.75;;;;;;;;5052729;28;45763;-75
2023/10/19 13:40:44;;;;;;;;;1.75;0.75;;;;;;;;5065002;28;45476;-76
2023/10/19 13:43:13;;;;;;;;;1.00;0.25;;;;;;;;5061458;28;46320;-75
2023/10/19 13:45:39;;;;;;;;;0.00;0.00;;;;;;;;5075695;28;45676;-76
2023/10/19 13:48:04;;;;;;;;;1.25;1.25;;;;;;;;5076139;28;45379;-76
2023/10/19 13:50:30;;;;;;;;;1.00;1.00;;;;;;;;5067341;28;46375;-76
2023/10/19 13:53:00;;;;;;;;;2.75;2.00;;;;;;;;5064347;28;45327;-77
2023/10/19 13:55:25;;;;;;;;;1.00;1.00;;;;;;;;5066081;28;45469;-76
2023/10/19 13:57:51;;;;;;;;;1.00;1.00;;;;;;;;5064231;27;45442;-75
2023/10/19 14:00:23;;;;;;;;;3.00;3.00;;;;;;;;5068393;27;46117;-75
2023/10/19 14:02:49;;;;;;;;;1.75;1.75;;;;;;;;5077451;27;48465;-76
2023/10/19 14:05:14;;;;;;;;;1.00;1.00;;;;;;;;5073033;28;45358;-75
2023/10/19 14:07:40;;;;;;;;;1.00;0.25;;;;;;;;5067746;27;45575;-74
2023/10/19 14:10:06;;;;;;;;;6.00;2.75;;;;;;;;5058178;28;45398;-73
2023/10/19 14:12:32;;;;;;;;;0.00;0.00;;;;;;;;5072760;27;48412;-74
2023/10/19 14:14:57;;;;;;;;;3.00;0.75;;;;;;;;5068012;28;45263;-73
2023/10/19 14:17:22;;;;;;;;;1.00;1.00;;;;;;;;5071377;27;45288;-74
2023/10/19 14:19:47;;;;;;;;;1.00;1.00;;;;;;;;5074187;28;47019;-73
2023/10/19 14:22:12;;;;;;;;;0.00;0.00;;;;;;;;5063873;27;47223;-77
2023/10/19 14:24:37;;;;;;;;;1.00;1.00;;;;;;;;5060206;28;46593;-74
2023/10/19 14:27:04;;;;;;;;;1.25;1.00;;;;;;;;5058745;27;45721;-75
2023/10/19 14:29:29;;;;;;;;;2.25;2.00;;;;;;;;5071050;27;46505;-74
2023/10/19 14:31:54;;;;;;;;;0.50;0.50;;;;;;;;5070814;27;46070;-73
2023/10/19 14:34:19;;;;;;;;;2.00;1.50;;;;;;;;5068574;28;45464;-74
2023/10/19 14:36:44;;;;;;;;;5.50;1.00;;;;;;;;5065370;27;45399;-76
2023/10/19 14:39:10;;;;;;;;;0.50;0.50;;;;;;;;5071004;28;45551;-75
2023/10/19 14:41:35;;;;;;;;;0.75;0.75;;;;;;;;5067666;27;47579;-74
2023/10/19 14:44:03;;;;;;;;;0.00;0.00;;;;;;;;5067945;28;45704;-75
2023/10/19 14:46:29;;;;;;;;;1.75;1.25;;;;;;;;5073979;27;45461;-75
2023/10/19 14:48:54;;;;;;;;;1.00;1.00;;;;;;;;5073660;28;45308;-74
2023/10/19 14:51:20;;;;;;;;;0.00;0.00;;;;;;;;5073226;27;45361;-74
2023/10/19 14:53:46;;;;;;;;;1.00;1.00;;;;;;;;5070187;28;45537;-75
2023/10/19 14:56:11;;;;;;;;;1.00;1.00;;;;;;;;5070277;27;46562;-74